sensor_id;sensor_type;location;lat;lon;timestamp;P1;durP1;ratioP1;P2;durP2;ratioP2
1693;SDS011;844;47.058;15.472;2023-04-25T00:00:51;4.70;;;4.30;;
1693;SDS011;844;47.058;15.472;2023-04-25T00:03:21;4.33;;;4.03;;
1693;SDS011;844;47.058;15.472;2023-04-25T00:05:53;4.73;;;4.23;;
1693;SDS011;844;47.058;15.472;2023-04-25T00:08:25;5.03;;;4.50;;
1693;SDS011;844;47.058;15.472;2023-04-25T00:10:56;5.03;;;4.53;;
1693;SDS011;844;47.058;15.472;2023-04-25T00:13:26;4.57;;;4.10;;
1693;SDS011;844;47.058;15.472;2023-04-25T00:15:57;4.57;;;4.20;;
1693;SDS011;844;47.058;15.472;2023-04-25T00:18:28;4.43;;;4.03;;
1693;SDS011;844;47.058;15.472;2023-04-25T00:21:00;4.20;;;3.90;;
1693;SDS011;844;47.058;15.472;2023-04-25T00:23:30;5.93;;;4.03;;
1693;SDS011;844;47.058;15.472;2023-04-25T00:26:04;5.13;;;4.63;;
1693;SDS011;844;47.058;15.472;2023-04-25T00:28:35;5.83;;;4.63;;
1693;SDS011;844;47.058;15.472;2023-04-25T00:31:06;5.33;;;4.77;;
1693;SDS011;844;47.058;15.472;2023-04-25T00:33:39;3.97;;;3.57;;
1693;SDS011;844;47.058;15.472;2023-04-25T00:36:09;5.23;;;4.73;;
1693;SDS011;844;47.058;15.472;2023-04-25T00:38:40;5.43;;;4.93;;
1693;SDS011;844;47.058;15.472;2023-04-25T00:41:12;5.33;;;4.93;;
1693;SDS011;844;47.058;15.472;2023-04-25T00:43:43;8.50;;;5.30;;
1693;SDS011;844;47.058;15.472;2023-04-25T00:46:14;5.40;;;4.90;;
1693;SDS011;844;47.058;15.472;2023-04-25T00:48:44;5.43;;;4.37;;
1693;SDS011;844;47.058;15.472;2023-04-25T00:51:16;4.93;;;4.33;;
1693;SDS011;844;47.058;15.472;2023-04-25T00:53:48;5.30;;;4.90;;
1693;SDS011;844;47.058;15.472;2023-04-25T00:56:21;5.37;;;4.97;;
1693;SDS011;844;47.058;15.472;2023-04-25T00:58:52;4.87;;;4.47;;
1693;SDS011;844;47.058;15.472;2023-04-25T01:01:23;5.53;;;4.60;;
1693;SDS011;844;47.058;15.472;2023-04-25T01:03:54;5.43;;;4.87;;
1693;SDS011;844;47.058;15.472;2023-04-25T01:06:27;5.40;;;4.90;;
1693;SDS011;844;47.058;15.472;2023-04-25T01:08:59;4.50;;;4.20;;
1693;SDS011;844;47.058;15.472;2023-04-25T01:11:31;5.53;;;4.43;;
1693;SDS011;844;47.058;15.472;2023-04-25T01:14:01;4.63;;;4.10;;
1693;SDS011;844;47.058;15.472;2023-04-25T01:16:31;5.10;;;4.60;;
1693;SDS011;844;47.058;15.472;2023-04-25T01:19:03;4.90;;;4.47;;
1693;SDS011;844;47.058;15.472;2023-04-25T01:21:38;5.47;;;5.07;;
1693;SDS011;844;47.058;15.472;2023-04-25T01:24:08;5.10;;;4.60;;
1693;SDS011;844;47.058;15.472;2023-04-25T01:26:38;7.87;;;4.87;;
1693;SDS011;844;47.058;15.472;2023-04-25T01:29:12;7.00;;;4.50;;
1693;SDS011;844;47.058;15.472;2023-04-25T01:31:42;5.40;;;4.80;;
1693;SDS011;844;47.058;15.472;2023-04-25T01:34:13;4.23;;;3.93;;
1693;SDS011;844;47.058;15.472;2023-04-25T01:36:44;4.37;;;4.07;;
1693;SDS011;844;47.058;15.472;2023-04-25T01:39:16;5.00;;;4.50;;
1693;SDS011;844;47.058;15.472;2023-04-25T01:41:47;5.43;;;4.97;;
1693;SDS011;844;47.058;15.472;2023-04-25T01:44:18;9.27;;;5.27;;
1693;SDS011;844;47.058;15.472;2023-04-25T01:46:48;6.23;;;4.87;;
1693;SDS011;844;47.058;15.472;2023-04-25T01:49:18;6.70;;;4.53;;
1693;SDS011;844;47.058;15.472;2023-04-25T01:51:51;4.90;;;4.40;;
1693;SDS011;844;47.058;15.472;2023-04-25T01:54:22;11.13;;;5.10;;
1693;SDS011;844;47.058;15.472;2023-04-25T01:56:52;6.20;;;4.97;;
1693;SDS011;844;47.058;15.472;2023-04-25T01:59:22;5.17;;;4.10;;
1693;SDS011;844;47.058;15.472;2023-04-25T02:01:52;5.27;;;4.77;;
1693;SDS011;844;47.058;15.472;2023-04-25T02:04:22;4.50;;;4.10;;
1693;SDS011;844;47.058;15.472;2023-04-25T02:06:54;5.80;;;5.17;;
1693;SDS011;844;47.058;15.472;2023-04-25T02:09:25;5.30;;;4.80;;
1693;SDS011;844;47.058;15.472;2023-04-25T02:11:55;5.57;;;5.10;;
1693;SDS011;844;47.058;15.472;2023-04-25T02:14:26;5.53;;;4.23;;
1693;SDS011;844;47.058;15.472;2023-04-25T02:16:56;9.07;;;4.90;;
1693;SDS011;844;47.058;15.472;2023-04-25T02:19:27;4.57;;;4.27;;
1693;SDS011;844;47.058;15.472;2023-04-25T02:21:59;5.77;;;4.90;;
1693;SDS011;844;47.058;15.472;2023-04-25T02:24:30;4.40;;;4.00;;
1693;SDS011;844;47.058;15.472;2023-04-25T02:27:02;5.10;;;4.03;;
1693;SDS011;844;47.058;15.472;2023-04-25T02:29:33;4.80;;;4.10;;
1693;SDS011;844;47.058;15.472;2023-04-25T02:32:04;4.77;;;3.83;;
1693;SDS011;844;47.058;15.472;2023-04-25T02:34:35;4.60;;;4.30;;
1693;SDS011;844;47.058;15.472;2023-04-25T02:37:08;5.33;;;4.00;;
1693;SDS011;844;47.058;15.472;2023-04-25T02:39:38;4.83;;;4.43;;
1693;SDS011;844;47.058;15.472;2023-04-25T02:42:08;4.83;;;3.77;;
1693;SDS011;844;47.058;15.472;2023-04-25T02:44:39;5.77;;;4.00;;
1693;SDS011;844;47.058;15.472;2023-04-25T02:47:09;4.47;;;3.70;;
1693;SDS011;844;47.058;15.472;2023-04-25T02:49:39;5.13;;;3.83;;
1693;SDS011;844;47.058;15.472;2023-04-25T02:52:11;4.50;;;3.23;;
1693;SDS011;844;47.058;15.472;2023-04-25T02:54:41;3.60;;;3.30;;
1693;SDS011;844;47.058;15.472;2023-04-25T02:57:12;4.97;;;4.23;;
1693;SDS011;844;47.058;15.472;2023-04-25T02:59:42;4.97;;;3.77;;
1693;SDS011;844;47.058;15.472;2023-04-25T03:02:12;4.07;;;3.77;;
1693;SDS011;844;47.058;15.472;2023-04-25T03:04:42;4.30;;;3.37;;
1693;SDS011;844;47.058;15.472;2023-04-25T03:07:15;4.17;;;3.87;;
1693;SDS011;844;47.058;15.472;2023-04-25T03:09:45;4.87;;;3.60;;
1693;SDS011;844;47.058;15.472;2023-04-25T03:12:15;2.97;;;2.77;;
1693;SDS011;844;47.058;15.472;2023-04-25T03:14:45;4.60;;;3.87;;
1693;SDS011;844;47.058;15.472;2023-04-25T03:17:15;3.60;;;3.33;;
1693;SDS011;844;47.058;15.472;2023-04-25T03:19:46;4.00;;;3.10;;
1693;SDS011;844;47.058;15.472;2023-04-25T03:22:19;3.50;;;2.60;;
1693;SDS011;844;47.058;15.472;2023-04-25T03:24:49;3.53;;;3.23;;
1693;SDS011;844;47.058;15.472;2023-04-25T03:27:19;4.60;;;3.07;;
1693;SDS011;844;47.058;15.472;2023-04-25T03:29:50;4.90;;;3.50;;
1693;SDS011;844;47.058;15.472;2023-04-25T03:32:21;4.53;;;3.50;;
1693;SDS011;844;47.058;15.472;2023-04-25T03:34:51;3.97;;;3.43;;
1693;SDS011;844;47.058;15.472;2023-04-25T03:37:23;3.57;;;3.27;;
1693;SDS011;844;47.058;15.472;2023-04-25T03:39:53;6.03;;;2.93;;
1693;SDS011;844;47.058;15.472;2023-04-25T03:42:23;3.70;;;2.87;;
1693;SDS011;844;47.058;15.472;2023-04-25T03:44:53;3.43;;;3.13;;
1693;SDS011;844;47.058;15.472;2023-04-25T03:47:24;5.17;;;4.40;;
1693;SDS011;844;47.058;15.472;2023-04-25T03:49:54;6.40;;;5.07;;
1693;SDS011;844;47.058;15.472;2023-04-25T03:52:26;6.57;;;4.77;;
1693;SDS011;844;47.058;15.472;2023-04-25T03:54:56;23.00;;;6.13;;
1693;SDS011;844;47.058;15.472;2023-04-25T03:57:27;6.13;;;5.20;;
1693;SDS011;844;47.058;15.472;2023-04-25T03:59:57;8.37;;;5.97;;
1693;SDS011;844;47.058;15.472;2023-04-25T04:02:26;12.10;;;6.80;;
1693;SDS011;844;47.058;15.472;2023-04-25T04:04:57;30.33;;;7.27;;
1693;SDS011;844;47.058;15.472;2023-04-25T04:07:30;8.20;;;6.93;;
1693;SDS011;844;47.058;15.472;2023-04-25T04:10:03;6.50;;;5.50;;
1693;SDS011;844;47.058;15.472;2023-04-25T04:12:35;7.50;;;5.57;;
1693;SDS011;844;47.058;15.472;2023-04-25T04:15:06;6.53;;;5.90;;
1693;SDS011;844;47.058;15.472;2023-04-25T04:17:38;5.97;;;5.20;;
1693;SDS011;844;47.058;15.472;2023-04-25T04:20:09;6.73;;;6.00;;
1693;SDS011;844;47.058;15.472;2023-04-25T04:22:42;26.40;;;9.30;;
1693;SDS011;844;47.058;15.472;2023-04-25T04:25:12;7.10;;;6.50;;
1693;SDS011;844;47.058;15.472;2023-04-25T04:27:42;8.60;;;6.17;;
1693;SDS011;844;47.058;15.472;2023-04-25T04:30:13;7.17;;;6.10;;
1693;SDS011;844;47.058;15.472;2023-04-25T04:32:43;8.53;;;6.60;;
1693;SDS011;844;47.058;15.472;2023-04-25T04:35:16;20.30;;;9.70;;
1693;SDS011;844;47.058;15.472;2023-04-25T04:37:48;17.63;;;7.17;;
1693;SDS011;844;47.058;15.472;2023-04-25T04:40:18;6.93;;;6.40;;
1693;SDS011;844;47.058;15.472;2023-04-25T04:42:50;7.10;;;6.40;;
1693;SDS011;844;47.058;15.472;2023-04-25T04:45:23;8.00;;;5.80;;
1693;SDS011;844;47.058;15.472;2023-04-25T04:47:55;6.30;;;5.10;;
1693;SDS011;844;47.058;15.472;2023-04-25T04:50:25;6.23;;;5.73;;
1693;SDS011;844;47.058;15.472;2023-04-25T04:52:58;6.90;;;6.17;;
1693;SDS011;844;47.058;15.472;2023-04-25T04:55:31;8.80;;;6.50;;
1693;SDS011;844;47.058;15.472;2023-04-25T04:58:01;6.50;;;5.80;;
1693;SDS011;844;47.058;15.472;2023-04-25T05:00:31;7.57;;;5.90;;
1693;SDS011;844;47.058;15.472;2023-04-25T05:03:02;8.87;;;5.83;;
1693;SDS011;844;47.058;15.472;2023-04-25T05:05:33;9.60;;;7.07;;
1693;SDS011;844;47.058;15.472;2023-04-25T05:08:09;5.60;;;5.10;;
1693;SDS011;844;47.058;15.472;2023-04-25T05:10:39;7.17;;;6.47;;
1693;SDS011;844;47.058;15.472;2023-04-25T05:13:09;7.40;;;6.53;;
1693;SDS011;844;47.058;15.472;2023-04-25T05:15:40;7.30;;;6.50;;
1693;SDS011;844;47.058;15.472;2023-04-25T05:18:10;7.40;;;6.80;;
1693;SDS011;844;47.058;15.472;2023-04-25T05:20:40;7.60;;;6.67;;
1693;SDS011;844;47.058;15.472;2023-04-25T05:23:12;12.93;;;7.83;;
1693;SDS011;844;47.058;15.472;2023-04-25T05:25:42;6.87;;;6.27;;
1693;SDS011;844;47.058;15.472;2023-04-25T05:28:12;6.23;;;5.70;;
1693;SDS011;844;47.058;15.472;2023-04-25T05:30:43;6.43;;;5.70;;
1693;SDS011;844;47.058;15.472;2023-04-25T05:33:13;5.97;;;5.50;;
1693;SDS011;844;47.058;15.472;2023-04-25T05:35:43;6.00;;;5.40;;
1693;SDS011;844;47.058;15.472;2023-04-25T05:38:16;6.37;;;5.77;;
1693;SDS011;844;47.058;15.472;2023-04-25T05:40:46;5.77;;;5.27;;
1693;SDS011;844;47.058;15.472;2023-04-25T05:43:16;6.33;;;5.73;;
1693;SDS011;844;47.058;15.472;2023-04-25T05:45:47;6.47;;;5.30;;
1693;SDS011;844;47.058;15.472;2023-04-25T05:48:18;7.00;;;6.40;;
1693;SDS011;844;47.058;15.472;2023-04-25T05:50:49;9.10;;;6.63;;
1693;SDS011;844;47.058;15.472;2023-04-25T05:53:21;6.87;;;6.27;;
1693;SDS011;844;47.058;15.472;2023-04-25T05:55:51;7.13;;;6.53;;
1693;SDS011;844;47.058;15.472;2023-04-25T05:58:20;7.20;;;5.73;;
1693;SDS011;844;47.058;15.472;2023-04-25T06:00:51;9.47;;;7.57;;
1693;SDS011;844;47.058;15.472;2023-04-25T06:03:22;8.93;;;7.70;;
1693;SDS011;844;47.058;15.472;2023-04-25T06:05:53;7.67;;;6.97;;
1693;SDS011;844;47.058;15.472;2023-04-25T06:08:26;10.10;;;8.50;;
1693;SDS011;844;47.058;15.472;2023-04-25T06:10:56;8.00;;;7.30;;
1693;SDS011;844;47.058;15.472;2023-04-25T06:13:27;6.40;;;5.90;;
1693;SDS011;844;47.058;15.472;2023-04-25T06:15:58;7.67;;;6.97;;
1693;SDS011;844;47.058;15.472;2023-04-25T06:18:28;9.33;;;6.33;;
1693;SDS011;844;47.058;15.472;2023-04-25T06:20:59;7.40;;;6.67;;
1693;SDS011;844;47.058;15.472;2023-04-25T06:23:32;7.03;;;6.40;;
1693;SDS011;844;47.058;15.472;2023-04-25T06:26:01;12.43;;;6.63;;
1693;SDS011;844;47.058;15.472;2023-04-25T06:28:33;9.83;;;7.40;;
1693;SDS011;844;47.058;15.472;2023-04-25T06:31:04;8.77;;;7.97;;
1693;SDS011;844;47.058;15.472;2023-04-25T06:33:35;8.00;;;7.30;;
1693;SDS011;844;47.058;15.472;2023-04-25T06:36:07;8.60;;;7.80;;
1693;SDS011;844;47.058;15.472;2023-04-25T06:38:40;10.00;;;9.20;;
1693;SDS011;844;47.058;15.472;2023-04-25T06:41:10;8.97;;;8.10;;
1693;SDS011;844;47.058;15.472;2023-04-25T06:43:40;11.03;;;9.00;;
1693;SDS011;844;47.058;15.472;2023-04-25T06:46:11;9.47;;;8.00;;
1693;SDS011;844;47.058;15.472;2023-04-25T06:48:41;9.80;;;8.70;;
1693;SDS011;844;47.058;15.472;2023-04-25T06:51:11;9.60;;;8.60;;
1693;SDS011;844;47.058;15.472;2023-04-25T06:53:44;10.53;;;9.57;;
1693;SDS011;844;47.058;15.472;2023-04-25T06:56:14;9.60;;;8.77;;
1693;SDS011;844;47.058;15.472;2023-04-25T06:58:45;8.70;;;7.90;;
1693;SDS011;844;47.058;15.472;2023-04-25T07:01:16;7.60;;;7.00;;
1693;SDS011;844;47.058;15.472;2023-04-25T07:03:47;8.47;;;7.67;;
1693;SDS011;844;47.058;15.472;2023-04-25T07:06:19;7.10;;;6.10;;
1693;SDS011;844;47.058;15.472;2023-04-25T07:08:52;9.47;;;5.97;;
1693;SDS011;844;47.058;15.472;2023-04-25T07:11:22;8.30;;;7.57;;
1693;SDS011;844;47.058;15.472;2023-04-25T07:13:53;8.00;;;7.30;;
1693;SDS011;844;47.058;15.472;2023-04-25T07:16:23;8.43;;;6.50;;
1693;SDS011;844;47.058;15.472;2023-04-25T07:18:52;7.10;;;6.03;;
1693;SDS011;844;47.058;15.472;2023-04-25T07:21:23;10.03;;;5.93;;
1693;SDS011;844;47.058;15.472;2023-04-25T07:23:55;7.00;;;6.40;;
1693;SDS011;844;47.058;15.472;2023-04-25T07:26:26;7.27;;;6.60;;
1693;SDS011;844;47.058;15.472;2023-04-25T07:28:57;7.50;;;6.77;;
1693;SDS011;844;47.058;15.472;2023-04-25T07:31:27;6.90;;;6.27;;
1693;SDS011;844;47.058;15.472;2023-04-25T07:33:58;7.00;;;5.90;;
1693;SDS011;844;47.058;15.472;2023-04-25T07:36:29;6.93;;;6.23;;
1693;SDS011;844;47.058;15.472;2023-04-25T07:39:00;5.97;;;5.40;;
1693;SDS011;844;47.058;15.472;2023-04-25T07:41:30;6.13;;;5.53;;
1693;SDS011;844;47.058;15.472;2023-04-25T07:44:02;5.33;;;4.83;;
1693;SDS011;844;47.058;15.472;2023-04-25T07:46:33;6.03;;;4.20;;
1693;SDS011;844;47.058;15.472;2023-04-25T07:49:03;5.17;;;4.67;;
1693;SDS011;844;47.058;15.472;2023-04-25T07:51:34;8.37;;;5.27;;
1693;SDS011;844;47.058;15.472;2023-04-25T07:54:06;5.73;;;4.80;;
1693;SDS011;844;47.058;15.472;2023-04-25T07:56:36;4.30;;;3.90;;
1693;SDS011;844;47.058;15.472;2023-04-25T07:59:19;3.10;;;2.53;;
1693;SDS011;844;47.058;15.472;2023-04-25T08:01:50;2.73;;;2.50;;
1693;SDS011;844;47.058;15.472;2023-04-25T08:04:20;2.60;;;2.40;;
1693;SDS011;844;47.058;15.472;2023-04-25T08:06:51;2.33;;;1.93;;
1693;SDS011;844;47.058;15.472;2023-04-25T08:09:24;2.80;;;1.67;;
1693;SDS011;844;47.058;15.472;2023-04-25T08:11:55;5.20;;;2.47;;
1693;SDS011;844;47.058;15.472;2023-04-25T08:14:26;3.07;;;2.03;;
1693;SDS011;844;47.058;15.472;2023-04-25T08:16:59;1.70;;;1.57;;
1693;SDS011;844;47.058;15.472;2023-04-25T08:19:30;3.97;;;1.57;;
1693;SDS011;844;47.058;15.472;2023-04-25T08:22:01;2.90;;;2.20;;
1693;SDS011;844;47.058;15.472;2023-04-25T08:24:33;2.00;;;1.67;;
1693;SDS011;844;47.058;15.472;2023-04-25T08:27:05;1.90;;;1.70;;
1693;SDS011;844;47.058;15.472;2023-04-25T08:29:38;3.50;;;1.27;;
1693;SDS011;844;47.058;15.472;2023-04-25T08:32:09;2.13;;;1.80;;
1693;SDS011;844;47.058;15.472;2023-04-25T08:34:40;1.70;;;1.60;;
1693;SDS011;844;47.058;15.472;2023-04-25T08:37:11;1.80;;;1.70;;
1693;SDS011;844;47.058;15.472;2023-04-25T08:39:43;2.07;;;1.77;;
1693;SDS011;844;47.058;15.472;2023-04-25T08:42:14;2.13;;;1.53;;
1693;SDS011;844;47.058;15.472;2023-04-25T08:44:45;3.23;;;1.50;;
1693;SDS011;844;47.058;15.472;2023-04-25T08:47:15;2.23;;;1.70;;
1693;SDS011;844;47.058;15.472;2023-04-25T08:49:45;2.33;;;1.83;;
1693;SDS011;844;47.058;15.472;2023-04-25T08:52:21;3.97;;;2.30;;
1693;SDS011;844;47.058;15.472;2023-04-25T08:55:11;1.90;;;1.33;;
1693;SDS011;844;47.058;15.472;2023-04-25T08:57:44;1.87;;;1.23;;
1693;SDS011;844;47.058;15.472;2023-04-25T09:00:15;2.27;;;1.40;;
1693;SDS011;844;47.058;15.472;2023-04-25T09:02:47;1.93;;;1.73;;
1693;SDS011;844;47.058;15.472;2023-04-25T09:05:17;1.50;;;1.30;;
1693;SDS011;844;47.058;15.472;2023-04-25T09:07:48;2.53;;;1.37;;
1693;SDS011;844;47.058;15.472;2023-04-25T09:10:20;3.00;;;1.60;;
1693;SDS011;844;47.058;15.472;2023-04-25T09:15:48;1.30;;;1.20;;
1693;SDS011;844;47.058;15.472;2023-04-25T09:18:23;2.00;;;1.80;;
1693;SDS011;844;47.058;15.472;2023-04-25T09:20:58;3.93;;;1.47;;
1693;SDS011;844;47.058;15.472;2023-04-25T09:23:43;2.77;;;1.90;;
1693;SDS011;844;47.058;15.472;2023-04-25T09:26:20;2.07;;;1.53;;
1693;SDS011;844;47.058;15.472;2023-04-25T09:28:52;1.70;;;1.20;;
1693;SDS011;844;47.058;15.472;2023-04-25T09:31:35;3.30;;;1.70;;
1693;SDS011;844;47.058;15.472;2023-04-25T09:34:06;2.53;;;1.67;;
1693;SDS011;844;47.058;15.472;2023-04-25T09:36:39;2.30;;;1.57;;
1693;SDS011;844;47.058;15.472;2023-04-25T09:39:12;1.40;;;1.30;;
1693;SDS011;844;47.058;15.472;2023-04-25T09:41:46;2.30;;;1.37;;
1693;SDS011;844;47.058;15.472;2023-04-25T09:44:19;2.10;;;1.93;;
1693;SDS011;844;47.058;15.472;2023-04-25T09:46:54;2.40;;;1.57;;
1693;SDS011;844;47.058;15.472;2023-04-25T09:49:28;3.00;;;1.90;;
1693;SDS011;844;47.058;15.472;2023-04-25T09:52:01;1.40;;;1.30;;
1693;SDS011;844;47.058;15.472;2023-04-25T09:54:35;2.03;;;1.30;;
1693;SDS011;844;47.058;15.472;2023-04-25T09:57:09;2.00;;;1.43;;
1693;SDS011;844;47.058;15.472;2023-04-25T09:59:45;1.57;;;1.40;;
1693;SDS011;844;47.058;15.472;2023-04-25T10:02:16;1.83;;;1.40;;
1693;SDS011;844;47.058;15.472;2023-04-25T10:04:49;1.93;;;1.13;;
1693;SDS011;844;47.058;15.472;2023-04-25T10:07:24;2.13;;;1.20;;
1693;SDS011;844;47.058;15.472;2023-04-25T10:09:58;2.00;;;1.47;;
1693;SDS011;844;47.058;15.472;2023-04-25T10:12:33;3.57;;;1.70;;
1693;SDS011;844;47.058;15.472;2023-04-25T10:15:05;3.33;;;1.77;;
1693;SDS011;844;47.058;15.472;2023-04-25T10:17:37;2.50;;;1.63;;
1693;SDS011;844;47.058;15.472;2023-04-25T10:20:10;1.20;;;1.10;;
1693;SDS011;844;47.058;15.472;2023-04-25T10:22:41;1.30;;;1.20;;
1693;SDS011;844;47.058;15.472;2023-04-25T10:25:12;2.20;;;1.27;;
1693;SDS011;844;47.058;15.472;2023-04-25T10:27:45;1.43;;;1.00;;
1693;SDS011;844;47.058;15.472;2023-04-25T10:30:15;1.57;;;1.40;;
1693;SDS011;844;47.058;15.472;2023-04-25T10:32:46;2.50;;;1.60;;
1693;SDS011;844;47.058;15.472;2023-04-25T10:35:18;2.20;;;1.57;;
1693;SDS011;844;47.058;15.472;2023-04-25T10:37:57;1.40;;;1.30;;
1693;SDS011;844;47.058;15.472;2023-04-25T10:40:35;2.53;;;1.60;;
1693;SDS011;844;47.058;15.472;2023-04-25T10:46:17;3.70;;;1.37;;
1693;SDS011;844;47.058;15.472;2023-04-25T10:48:52;2.03;;;1.33;;
1693;SDS011;844;47.058;15.472;2023-04-25T10:51:24;1.77;;;1.30;;
1693;SDS011;844;47.058;15.472;2023-04-25T10:54:07;2.23;;;1.40;;
1693;SDS011;844;47.058;15.472;2023-04-25T10:56:38;1.67;;;1.43;;
1693;SDS011;844;47.058;15.472;2023-04-25T10:59:14;2.60;;;1.63;;
1693;SDS011;844;47.058;15.472;2023-04-25T11:01:51;3.20;;;1.50;;
1693;SDS011;844;47.058;15.472;2023-04-25T11:04:23;1.60;;;1.50;;
1693;SDS011;844;47.058;15.472;2023-04-25T11:07:03;1.83;;;1.03;;
1693;SDS011;844;47.058;15.472;2023-04-25T11:09:38;2.50;;;1.63;;
1693;SDS011;844;47.058;15.472;2023-04-25T11:12:09;2.60;;;1.63;;
1693;SDS011;844;47.058;15.472;2023-04-25T11:14:41;1.33;;;1.23;;
1693;SDS011;844;47.058;15.472;2023-04-25T11:17:12;2.20;;;1.50;;
1693;SDS011;844;47.058;15.472;2023-04-25T11:19:42;3.80;;;1.67;;
1693;SDS011;844;47.058;15.472;2023-04-25T11:22:13;1.83;;;1.57;;
1693;SDS011;844;47.058;15.472;2023-04-25T11:24:42;1.93;;;1.53;;
1693;SDS011;844;47.058;15.472;2023-04-25T11:27:14;2.63;;;1.83;;
1693;SDS011;844;47.058;15.472;2023-04-25T11:29:46;2.50;;;1.63;;
1693;SDS011;844;47.058;15.472;2023-04-25T11:32:17;1.90;;;1.43;;
1693;SDS011;844;47.058;15.472;2023-04-25T11:34:52;2.93;;;2.03;;
1693;SDS011;844;47.058;15.472;2023-04-25T11:37:23;3.20;;;1.53;;
1693;SDS011;844;47.058;15.472;2023-04-25T11:39:54;2.73;;;1.93;;
1693;SDS011;844;47.058;15.472;2023-04-25T11:42:25;1.40;;;1.30;;
1693;SDS011;844;47.058;15.472;2023-04-25T11:44:57;1.87;;;1.53;;
1693;SDS011;844;47.058;15.472;2023-04-25T11:47:29;2.57;;;1.43;;
1693;SDS011;844;47.058;15.472;2023-04-25T11:50:00;1.37;;;1.27;;
1693;SDS011;844;47.058;15.472;2023-04-25T11:52:40;2.20;;;1.47;;
1693;SDS011;844;47.058;15.472;2023-04-25T11:55:13;1.27;;;1.17;;
1693;SDS011;844;47.058;15.472;2023-04-25T11:57:44;5.43;;;1.33;;
1693;SDS011;844;47.058;15.472;2023-04-25T12:00:18;3.80;;;2.43;;
1693;SDS011;844;47.058;15.472;2023-04-25T12:02:51;2.40;;;2.07;;
1693;SDS011;844;47.058;15.472;2023-04-25T12:05:23;1.20;;;0.87;;
1693;SDS011;844;47.058;15.472;2023-04-25T12:08:11;4.23;;;1.80;;
1693;SDS011;844;47.058;15.472;2023-04-25T12:10:43;1.30;;;1.00;;
1693;SDS011;844;47.058;15.472;2023-04-25T12:13:18;1.87;;;1.17;;
1693;SDS011;844;47.058;15.472;2023-04-25T12:15:53;2.90;;;1.70;;
1693;SDS011;844;47.058;15.472;2023-04-25T12:18:24;3.53;;;1.40;;
1693;SDS011;844;47.058;15.472;2023-04-25T12:20:56;1.50;;;1.17;;
1693;SDS011;844;47.058;15.472;2023-04-25T12:23:27;1.17;;;1.07;;
1693;SDS011;844;47.058;15.472;2023-04-25T12:25:58;1.47;;;1.37;;
1693;SDS011;844;47.058;15.472;2023-04-25T12:28:31;1.50;;;1.40;;
1693;SDS011;844;47.058;15.472;2023-04-25T12:31:04;1.97;;;1.60;;
1693;SDS011;844;47.058;15.472;2023-04-25T12:33:35;2.37;;;1.40;;
1693;SDS011;844;47.058;15.472;2023-04-25T12:36:06;1.90;;;1.70;;
1693;SDS011;844;47.058;15.472;2023-04-25T12:38:39;3.37;;;1.33;;
1693;SDS011;844;47.058;15.472;2023-04-25T12:41:10;1.30;;;1.00;;
1693;SDS011;844;47.058;15.472;2023-04-25T12:43:41;2.70;;;1.27;;
1693;SDS011;844;47.058;15.472;2023-04-25T12:46:13;5.07;;;1.67;;
1693;SDS011;844;47.058;15.472;2023-04-25T12:48:44;1.30;;;1.20;;
1693;SDS011;844;47.058;15.472;2023-04-25T12:51:15;1.17;;;1.07;;
1693;SDS011;844;47.058;15.472;2023-04-25T12:53:51;3.87;;;2.10;;
1693;SDS011;844;47.058;15.472;2023-04-25T12:56:27;0.90;;;0.80;;
1693;SDS011;844;47.058;15.472;2023-04-25T12:58:58;1.10;;;0.90;;
1693;SDS011;844;47.058;15.472;2023-04-25T13:01:33;2.13;;;1.43;;
1693;SDS011;844;47.058;15.472;2023-04-25T13:04:05;1.43;;;0.90;;
1693;SDS011;844;47.058;15.472;2023-04-25T13:06:35;1.43;;;1.23;;
1693;SDS011;844;47.058;15.472;2023-04-25T13:09:05;3.37;;;1.67;;
1693;SDS011;844;47.058;15.472;2023-04-25T13:11:36;2.90;;;1.90;;
1693;SDS011;844;47.058;15.472;2023-04-25T13:14:08;1.97;;;1.27;;
1693;SDS011;844;47.058;15.472;2023-04-25T13:16:40;5.00;;;2.20;;
1693;SDS011;844;47.058;15.472;2023-04-25T13:19:11;2.03;;;1.33;;
1693;SDS011;844;47.058;15.472;2023-04-25T13:21:40;2.03;;;1.40;;
1693;SDS011;844;47.058;15.472;2023-04-25T13:24:11;1.53;;;1.10;;
1693;SDS011;844;47.058;15.472;2023-04-25T13:26:40;2.03;;;1.83;;
1693;SDS011;844;47.058;15.472;2023-04-25T13:29:11;1.67;;;1.53;;
1693;SDS011;844;47.058;15.472;2023-04-25T13:31:44;2.07;;;1.63;;
1693;SDS011;844;47.058;15.472;2023-04-25T13:34:14;1.80;;;1.70;;
1693;SDS011;844;47.058;15.472;2023-04-25T13:36:45;2.40;;;1.57;;
1693;SDS011;844;47.058;15.472;2023-04-25T13:39:16;2.40;;;1.63;;
1693;SDS011;844;47.058;15.472;2023-04-25T13:41:46;2.53;;;1.33;;
1693;SDS011;844;47.058;15.472;2023-04-25T13:44:17;1.93;;;1.77;;
1693;SDS011;844;47.058;15.472;2023-04-25T13:46:49;1.60;;;1.13;;
1693;SDS011;844;47.058;15.472;2023-04-25T13:49:20;1.73;;;1.00;;
1693;SDS011;844;47.058;15.472;2023-04-25T13:51:49;4.13;;;1.70;;
1693;SDS011;844;47.058;15.472;2023-04-25T13:54:21;2.90;;;1.13;;
1693;SDS011;844;47.058;15.472;2023-04-25T13:56:52;2.80;;;1.70;;
1693;SDS011;844;47.058;15.472;2023-04-25T13:59:27;2.80;;;1.50;;
1693;SDS011;844;47.058;15.472;2023-04-25T14:02:00;1.80;;;1.50;;
1693;SDS011;844;47.058;15.472;2023-04-25T14:04:31;1.80;;;1.43;;
1693;SDS011;844;47.058;15.472;2023-04-25T14:07:02;1.30;;;1.20;;
1693;SDS011;844;47.058;15.472;2023-04-25T14:09:33;2.47;;;1.70;;
1693;SDS011;844;47.058;15.472;2023-04-25T14:12:03;1.77;;;1.17;;
1693;SDS011;844;47.058;15.472;2023-04-25T14:14:35;2.57;;;1.60;;
1693;SDS011;844;47.058;15.472;2023-04-25T14:17:07;3.13;;;1.70;;
1693;SDS011;844;47.058;15.472;2023-04-25T14:19:39;2.50;;;1.73;;
1693;SDS011;844;47.058;15.472;2023-04-25T14:22:13;1.93;;;1.40;;
1693;SDS011;844;47.058;15.472;2023-04-25T14:24:44;2.13;;;1.30;;
1693;SDS011;844;47.058;15.472;2023-04-25T14:27:14;5.13;;;1.90;;
1693;SDS011;844;47.058;15.472;2023-04-25T14:29:45;1.50;;;1.40;;
1693;SDS011;844;47.058;15.472;2023-04-25T14:32:18;1.87;;;1.40;;
1693;SDS011;844;47.058;15.472;2023-04-25T14:34:50;1.53;;;1.30;;
1693;SDS011;844;47.058;15.472;2023-04-25T14:37:20;4.83;;;1.30;;
1693;SDS011;844;47.058;15.472;2023-04-25T14:39:50;2.93;;;1.10;;
1693;SDS011;844;47.058;15.472;2023-04-25T14:42:21;1.93;;;1.10;;
1693;SDS011;844;47.058;15.472;2023-04-25T14:44:52;2.50;;;1.40;;
1693;SDS011;844;47.058;15.472;2023-04-25T14:47:25;3.33;;;1.60;;
1693;SDS011;844;47.058;15.472;2023-04-25T14:49:55;1.63;;;1.53;;
1693;SDS011;844;47.058;15.472;2023-04-25T14:52:27;1.63;;;1.30;;
1693;SDS011;844;47.058;15.472;2023-04-25T14:54:58;1.77;;;1.13;;
1693;SDS011;844;47.058;15.472;2023-04-25T14:57:32;2.03;;;1.40;;
1693;SDS011;844;47.058;15.472;2023-04-25T15:00:04;3.07;;;1.67;;
1693;SDS011;844;47.058;15.472;2023-04-25T15:02:38;1.50;;;1.13;;
1693;SDS011;844;47.058;15.472;2023-04-25T15:05:11;3.40;;;1.10;;
1693;SDS011;844;47.058;15.472;2023-04-25T15:07:41;1.43;;;1.33;;
1693;SDS011;844;47.058;15.472;2023-04-25T15:10:11;2.60;;;1.63;;
1693;SDS011;844;47.058;15.472;2023-04-25T15:12:44;1.10;;;1.00;;
1693;SDS011;844;47.058;15.472;2023-04-25T15:15:15;1.27;;;1.17;;
1693;SDS011;844;47.058;15.472;2023-04-25T15:17:54;1.70;;;1.40;;
1693;SDS011;844;47.058;15.472;2023-04-25T15:20:25;1.73;;;1.40;;
1693;SDS011;844;47.058;15.472;2023-04-25T15:22:56;1.67;;;1.20;;
1693;SDS011;844;47.058;15.472;2023-04-25T15:25:27;2.80;;;1.73;;
1693;SDS011;844;47.058;15.472;2023-04-25T15:27:58;1.47;;;1.30;;
1693;SDS011;844;47.058;15.472;2023-04-25T15:30:29;2.13;;;1.50;;
1693;SDS011;844;47.058;15.472;2023-04-25T15:33:01;1.20;;;1.10;;
1693;SDS011;844;47.058;15.472;2023-04-25T15:35:32;2.57;;;1.03;;
1693;SDS011;844;47.058;15.472;2023-04-25T15:38:03;1.13;;;1.03;;
1693;SDS011;844;47.058;15.472;2023-04-25T15:40:34;1.00;;;0.70;;
1693;SDS011;844;47.058;15.472;2023-04-25T15:43:05;0.87;;;0.73;;
1693;SDS011;844;47.058;15.472;2023-04-25T15:45:42;1.10;;;0.90;;
1693;SDS011;844;47.058;15.472;2023-04-25T15:48:16;1.67;;;1.27;;